Portada
METAR-TAF:

METAR-TAF

Aeropuertos :

Aeropuerto de Menorca

Menorca, España

latitud: 39-52N, longitud: 004-14E, altitud: 87 m

Observación

El informe se hizo hace 41 minutos, a las 01:30 UTC
Viento 20 kt del este
Temperatura 13°C
Humedad 88%
Presión 1023 hPa
Visibilidad 10 km o más
sin nubes por debajo de 1500 m y sin presencia de cumulonimbus.

METAR: LEMH 020130Z AUTO 08020KT CAVOK 13/11 Q1023

Hora: 03:11 (02:11 UTC)

Pronóstico

El informe se hizo hace 2 horas y 38 minutos, a las 23:33 UTC
Pronóstico válido del 01 a las 23 UTC al 02 a las 21 UTC
Viento 15 kt del este
Visibilidad 10 km o más
Escasas nubes a una altura de 1100 ft
Cielo nuboso a una altura de 1400 ft

TAF: LEMH 012333Z 0123/0221 08015KT 9999 FEW011 BKN014 TX16/0212Z TN09/0206Z

Observaciones y pronósticos meteorológicos de más de 4000 aeropuertos (mensajes METAR y TAF).

Los puntos amarillos y rojos representan las estaciones disponibles.

Ponga el ratón en el punto deseado para ver el nombre de la estación.

Haga clic para ver las observaciones y los pronósticos meteorológicos.

Para cambiar el mapa : haga clic en los botones verdes con una cruz de color negro para hacer un zoom, en el botón verde con un guión para alejar o en las flechas verdes para mapas adyacentes.


METAR-TAF: